createdAt,value
2018-06-11T00:00:01.893Z,64.00
2018-06-11T00:00:33.665Z,63.60
2018-06-11T00:01:05.566Z,63.60
2018-06-11T00:01:37.297Z,63.60
2018-06-11T00:02:09.040Z,63.50
2018-06-11T00:02:40.772Z,63.50
2018-06-11T00:03:12.489Z,63.50
2018-06-11T00:03:44.241Z,63.60
2018-06-11T00:04:15.974Z,63.50
2018-06-11T00:04:47.729Z,63.20
2018-06-11T00:05:19.504Z,63.40
2018-06-11T00:05:51.217Z,63.30
2018-06-11T00:06:22.934Z,63.40
2018-06-11T00:06:54.861Z,63.10
2018-06-11T00:07:26.594Z,63.10
2018-06-11T00:07:58.379Z,63.00
2018-06-11T00:08:30.098Z,63.50
2018-06-11T00:09:01.858Z,63.50
2018-06-11T00:09:33.590Z,63.50
2018-06-11T00:10:05.311Z,64.40
2018-06-11T00:10:37.044Z,64.20
2018-06-11T00:11:40.801Z,63.50
2018-06-11T00:12:12.534Z,63.70
2018-06-11T00:12:44.272Z,63.80
2018-06-11T00:13:15.986Z,63.90
2018-06-11T00:13:47.732Z,63.80
2018-06-11T00:14:19.429Z,63.80
2018-06-11T00:14:51.166Z,64.00
2018-06-11T00:15:22.928Z,64.10
2018-06-11T00:15:54.633Z,63.70
2018-06-11T00:16:26.354Z,63.80
2018-06-11T00:16:58.121Z,63.70
2018-06-11T00:17:29.827Z,63.60
2018-06-11T00:18:01.562Z,64.00
2018-06-11T00:18:33.289Z,64.30
2018-06-11T00:19:05.012Z,63.90
2018-06-11T00:19:36.730Z,63.60
2018-06-11T00:20:08.485Z,63.70
2018-06-11T00:20:40.198Z,63.80
2018-06-11T00:21:11.931Z,63.90
2018-06-11T00:21:43.665Z,63.80
2018-06-11T00:22:15.386Z,63.90
2018-06-11T00:22:47.118Z,63.90
2018-06-11T00:23:18.842Z,63.50
2018-06-11T00:23:50.561Z,63.80
2018-06-11T00:24:22.300Z,63.80
2018-06-11T00:24:54.022Z,63.30
2018-06-11T00:25:25.747Z,63.30
2018-06-11T00:25:57.480Z,63.20
2018-06-11T00:26:29.206Z,62.90
2018-06-11T00:27:00.945Z,63.40
2018-06-11T00:27:32.658Z,63.30
2018-06-11T00:28:04.386Z,63.00
2018-06-11T00:28:36.312Z,63.10
2018-06-11T00:29:08.089Z,63.20
2018-06-11T00:29:39.822Z,63.30
2018-06-11T00:30:11.553Z,63.30
2018-06-11T00:30:43.274Z,63.60
2018-06-11T00:31:15.031Z,63.20
2018-06-11T00:31:46.761Z,63.10
2018-06-11T00:32:18.476Z,63.50
2018-06-11T00:32:50.201Z,63.40
2018-06-11T00:33:21.922Z,63.50
2018-06-11T00:33:53.646Z,63.30
2018-06-11T00:34:25.375Z,63.50
2018-06-11T00:34:57.094Z,63.60
2018-06-11T00:36:00.849Z,63.60
2018-06-11T00:36:32.568Z,63.50
2018-06-11T00:37:04.297Z,63.50
2018-06-11T00:37:36.018Z,63.40
2018-06-11T00:38:39.715Z,63.50
2018-06-11T00:39:11.438Z,63.30
2018-06-11T00:39:43.154Z,63.30
2018-06-11T00:40:14.979Z,63.50
2018-06-11T00:40:46.746Z,63.40
2018-06-11T00:41:18.481Z,63.30
2018-06-11T00:41:50.220Z,63.30
2018-06-11T00:42:21.938Z,63.30
2018-06-11T00:42:53.662Z,63.40
2018-06-11T00:43:25.425Z,63.30
2018-06-11T00:43:57.152Z,64.00
2018-06-11T00:44:28.873Z,63.60
2018-06-11T00:45:00.602Z,63.80
2018-06-11T00:45:32.321Z,63.70
2018-06-11T00:46:04.063Z,63.50
2018-06-11T00:46:35.780Z,63.60
2018-06-11T00:47:07.505Z,63.80
2018-06-11T00:47:39.225Z,63.90
2018-06-11T00:48:11.010Z,63.90
2018-06-11T00:48:42.753Z,63.90
2018-06-11T00:49:14.479Z,63.90
2018-06-11T00:49:46.205Z,63.60
2018-06-11T00:50:17.929Z,63.90
2018-06-11T00:50:49.714Z,63.90
2018-06-11T00:51:21.443Z,63.60
2018-06-11T00:51:53.180Z,63.90
2018-06-11T00:52:24.910Z,63.90
2018-06-11T00:52:56.673Z,63.70
2018-06-11T00:53:28.432Z,63.80
2018-06-11T00:54:00.157Z,63.60
2018-06-11T00:54:31.893Z,63.60
2018-06-11T00:55:03.630Z,63.40
2018-06-11T00:55:35.361Z,63.50
2018-06-11T00:56:07.106Z,63.40
2018-06-11T00:56:38.861Z,63.50
2018-06-11T00:57:10.584Z,63.60
2018-06-11T00:57:42.316Z,63.20
2018-06-11T00:58:14.033Z,63.30
2018-06-11T00:58:45.758Z,63.40
2018-06-11T00:59:17.502Z,63.50
2018-06-11T00:59:49.223Z,63.40
2018-06-11T01:00:20.952Z,63.50
2018-06-11T01:00:52.685Z,63.40
2018-06-11T01:01:24.417Z,63.30
2018-06-11T01:01:56.173Z,63.50
2018-06-11T01:02:27.908Z,63.40
2018-06-11T01:02:59.640Z,63.30
2018-06-11T01:04:03.413Z,63.20
2018-06-11T01:04:35.138Z,63.30
2018-06-11T01:05:06.889Z,63.30
2018-06-11T01:05:38.617Z,63.20
2018-06-11T01:06:10.336Z,63.20
2018-06-11T01:06:42.073Z,63.20
2018-06-11T01:07:13.821Z,63.20
2018-06-11T01:07:45.548Z,63.30
2018-06-11T01:08:17.294Z,63.50
2018-06-11T01:08:49.022Z,63.40
2018-06-11T01:09:20.737Z,63.50
2018-06-11T01:09:52.473Z,63.50
2018-06-11T01:10:24.225Z,63.60
2018-06-11T01:10:55.949Z,63.60
2018-06-11T01:11:27.692Z,63.60
2018-06-11T01:11:59.539Z,63.50
2018-06-11T01:12:31.239Z,63.50
2018-06-11T01:13:02.972Z,63.60
2018-06-11T01:13:34.716Z,63.50
2018-06-11T01:14:06.445Z,63.60
2018-06-11T01:14:38.188Z,63.60
2018-06-11T01:15:09.928Z,63.60
2018-06-11T01:15:41.637Z,63.60
2018-06-11T01:16:13.371Z,63.40
2018-06-11T01:16:45.096Z,63.60
2018-06-11T01:17:16.828Z,63.50
2018-06-11T01:17:48.569Z,64.30
2018-06-11T01:18:20.280Z,63.60
2018-06-11T01:18:52.008Z,63.60
2018-06-11T01:19:23.721Z,63.60
2018-06-11T01:19:55.452Z,63.50
2018-06-11T01:20:27.168Z,63.50
2018-06-11T01:20:58.898Z,63.30
2018-06-11T01:21:30.638Z,63.30
2018-06-11T01:22:02.375Z,63.10
2018-06-11T01:22:34.099Z,63.20
2018-06-11T01:23:05.828Z,63.00
2018-06-11T01:23:37.561Z,63.10
2018-06-11T01:24:09.308Z,63.30
2018-06-11T01:24:41.051Z,63.10
2018-06-11T01:25:12.771Z,63.60
2018-06-11T01:25:44.491Z,63.20
2018-06-11T01:26:16.239Z,63.20
2018-06-11T01:26:47.968Z,63.20
2018-06-11T01:27:19.718Z,63.20
2018-06-11T01:27:51.468Z,63.00
2018-06-11T01:28:23.179Z,63.20
2018-06-11T01:28:54.920Z,62.90
2018-06-11T01:29:26.653Z,63.20
2018-06-11T01:29:58.389Z,63.20
2018-06-11T01:30:30.125Z,63.00
2018-06-11T01:31:01.866Z,63.20
2018-06-11T01:31:33.578Z,63.20
2018-06-11T01:32:05.723Z,63.30
2018-06-11T01:32:37.438Z,63.30
2018-06-11T01:33:09.170Z,63.20
2018-06-11T01:33:40.895Z,63.30
2018-06-11T01:34:12.638Z,63.20
2018-06-11T01:34:44.361Z,63.20
2018-06-11T01:35:16.145Z,63.20
2018-06-11T01:35:48.096Z,63.30
2018-06-11T01:36:19.857Z,63.30
2018-06-11T01:36:51.776Z,63.30
2018-06-11T01:37:23.515Z,63.20
2018-06-11T01:37:55.239Z,63.20
2018-06-11T01:38:26.962Z,63.20
2018-06-11T01:38:58.742Z,63.20
2018-06-11T01:39:30.461Z,63.10
2018-06-11T01:40:02.196Z,63.20
2018-06-11T01:40:33.945Z,63.00
2018-06-11T01:41:05.653Z,63.10
2018-06-11T01:41:37.381Z,63.20
2018-06-11T01:42:09.101Z,63.20
2018-06-11T01:42:40.826Z,63.20
2018-06-11T01:43:12.538Z,63.20
2018-06-11T01:43:44.374Z,63.20
2018-06-11T01:44:16.310Z,63.10
2018-06-11T01:44:48.137Z,63.20
2018-06-11T01:45:19.888Z,63.20
2018-06-11T01:45:51.595Z,63.20
2018-06-11T01:46:23.341Z,63.20
2018-06-11T01:46:55.050Z,63.20
2018-06-11T01:47:26.781Z,62.90
2018-06-11T01:47:58.506Z,63.10
2018-06-11T01:48:30.295Z,63.20
2018-06-11T01:49:02.278Z,63.10
2018-06-11T01:49:34.566Z,63.00
2018-06-11T01:50:06.493Z,63.00
2018-06-11T01:50:38.698Z,63.00
2018-06-11T01:51:10.688Z,63.00
2018-06-11T01:51:42.380Z,63.00
2018-06-11T01:52:14.122Z,63.10
2018-06-11T01:52:46.164Z,63.00
2018-06-11T01:53:17.887Z,62.90
2018-06-11T01:53:49.635Z,63.00
2018-06-11T01:54:21.369Z,63.00
2018-06-11T01:54:53.089Z,63.00
2018-06-11T01:55:24.819Z,63.00
2018-06-11T01:55:56.558Z,63.00
2018-06-11T01:56:28.302Z,62.90
2018-06-11T01:57:00.013Z,63.00
2018-06-11T01:57:31.766Z,63.00
2018-06-11T01:58:03.466Z,63.90
2018-06-11T01:58:35.196Z,63.10
2018-06-11T01:59:06.943Z,63.00
2018-06-11T01:59:38.670Z,63.00
2018-06-11T02:00:10.401Z,63.10
2018-06-11T02:00:42.122Z,63.10
2018-06-11T02:01:13.847Z,63.00
2018-06-11T02:01:45.577Z,63.00
2018-06-11T02:02:17.310Z,63.10
2018-06-11T02:02:49.042Z,63.10
2018-06-11T02:03:20.775Z,63.10
2018-06-11T02:03:52.494Z,63.10
2018-06-11T02:04:24.227Z,63.10
2018-06-11T02:04:55.942Z,63.10
2018-06-11T02:05:27.664Z,63.10
2018-06-11T02:05:59.393Z,63.00
2018-06-11T02:06:31.131Z,63.00
2018-06-11T02:07:02.852Z,63.00
2018-06-11T02:07:34.571Z,63.00
2018-06-11T02:08:06.338Z,63.50
2018-06-11T02:08:38.043Z,63.00
2018-06-11T02:09:09.769Z,63.00
2018-06-11T02:09:41.571Z,63.00
2018-06-11T02:10:45.298Z,63.50
2018-06-11T02:11:17.033Z,63.00
2018-06-11T02:11:48.767Z,63.00
2018-06-11T02:12:20.504Z,62.90
2018-06-11T02:12:52.241Z,62.90
2018-06-11T02:13:23.972Z,62.80
2018-06-11T02:13:55.700Z,62.90
2018-06-11T02:14:27.425Z,62.90
2018-06-11T02:14:59.147Z,62.90
2018-06-11T02:15:30.877Z,62.80
2018-06-11T02:16:02.648Z,62.80
2018-06-11T02:16:34.382Z,62.90
2018-06-11T02:17:06.106Z,62.90
2018-06-11T02:17:37.835Z,62.90
2018-06-11T02:18:09.557Z,63.50
2018-06-11T02:18:41.307Z,63.00
2018-06-11T02:19:13.016Z,63.10
2018-06-11T02:19:44.731Z,62.90
2018-06-11T02:20:16.476Z,63.10
2018-06-11T02:20:48.306Z,63.00
2018-06-11T02:21:20.032Z,63.10
2018-06-11T02:21:51.962Z,63.00
2018-06-11T02:22:23.673Z,62.90
2018-06-11T02:22:55.427Z,63.00
2018-06-11T02:23:27.144Z,63.00
2018-06-11T02:23:58.861Z,62.90
2018-06-11T02:24:30.600Z,62.90
2018-06-11T02:25:02.319Z,62.90
2018-06-11T02:25:34.057Z,63.00
2018-06-11T02:26:05.774Z,62.90
2018-06-11T02:26:37.486Z,62.90
2018-06-11T02:27:09.217Z,62.90
2018-06-11T02:27:40.954Z,62.80
2018-06-11T02:28:12.673Z,62.90
2018-06-11T02:28:44.403Z,62.80
2018-06-11T02:29:16.136Z,62.80
2018-06-11T02:29:47.949Z,62.90
2018-06-11T02:30:19.674Z,62.90
2018-06-11T02:30:51.401Z,62.80
2018-06-11T02:31:23.125Z,62.80
2018-06-11T02:31:54.850Z,62.70
2018-06-11T02:32:26.565Z,62.70
2018-06-11T02:32:58.297Z,62.90
2018-06-11T02:33:30.024Z,62.80
2018-06-11T02:34:01.964Z,62.70
2018-06-11T02:34:33.726Z,62.80
2018-06-11T02:35:05.497Z,62.80
2018-06-11T02:35:37.240Z,62.80
2018-06-11T02:36:08.948Z,62.80
2018-06-11T02:36:40.675Z,62.80
2018-06-11T02:37:12.398Z,62.80
2018-06-11T02:37:44.128Z,62.90
2018-06-11T02:38:15.857Z,62.90
2018-06-11T02:38:47.586Z,62.90
2018-06-11T02:39:19.306Z,62.80
2018-06-11T02:39:51.048Z,62.80
2018-06-11T02:40:22.777Z,62.80
2018-06-11T02:40:54.497Z,62.80
2018-06-11T02:41:26.220Z,62.80
2018-06-11T02:41:57.954Z,62.80
2018-06-11T02:42:29.685Z,62.80
2018-06-11T02:43:01.410Z,62.80
2018-06-11T02:43:33.130Z,62.80
2018-06-11T02:44:04.881Z,62.70
2018-06-11T02:45:08.641Z,62.60
2018-06-11T02:45:40.425Z,62.60
2018-06-11T02:46:12.138Z,62.60
2018-06-11T02:46:43.869Z,62.60
2018-06-11T02:47:15.839Z,62.80
2018-06-11T02:47:47.562Z,62.70
2018-06-11T02:48:19.301Z,62.70
2018-06-11T02:48:51.017Z,62.70
2018-06-11T02:49:22.759Z,62.70
2018-06-11T02:49:54.674Z,62.60
2018-06-11T02:50:26.398Z,62.60
2018-06-11T02:50:58.123Z,63.20
2018-06-11T02:51:29.846Z,62.50
2018-06-11T02:52:01.587Z,62.60
2018-06-11T02:52:33.305Z,62.60
2018-06-11T02:53:05.044Z,62.50
2018-06-11T02:53:36.791Z,62.70
2018-06-11T02:54:08.517Z,62.60
2018-06-11T02:54:40.243Z,62.60
2018-06-11T02:55:11.975Z,62.90
2018-06-11T02:55:43.699Z,62.50
2018-06-11T02:56:15.450Z,62.60
2018-06-11T02:56:47.197Z,62.70
2018-06-11T02:57:18.921Z,62.70
2018-06-11T02:57:50.658Z,62.70
2018-06-11T02:58:22.406Z,63.40
2018-06-11T02:58:54.227Z,62.70
2018-06-11T02:59:25.970Z,62.70
2018-06-11T02:59:57.877Z,62.70
2018-06-11T03:00:29.604Z,62.70
2018-06-11T03:01:01.334Z,62.80
2018-06-11T03:01:33.061Z,62.80
2018-06-11T03:02:04.785Z,62.80
2018-06-11T03:02:36.533Z,62.80
2018-06-11T03:03:08.256Z,62.90
2018-06-11T03:03:39.987Z,63.30
2018-06-11T03:04:11.737Z,62.80
2018-06-11T03:04:43.454Z,62.80
2018-06-11T03:05:15.185Z,62.80
2018-06-11T03:05:46.920Z,62.80
2018-06-11T03:06:18.647Z,62.80
2018-06-11T03:06:50.391Z,62.80
2018-06-11T03:07:22.137Z,62.80
2018-06-11T03:07:53.863Z,62.70
2018-06-11T03:08:25.604Z,62.80
2018-06-11T03:08:57.344Z,62.80
2018-06-11T03:09:29.087Z,62.80
2018-06-11T03:10:00.806Z,62.70
2018-06-11T03:10:32.549Z,62.70
2018-06-11T03:11:04.278Z,62.80
2018-06-11T03:11:35.999Z,62.80
2018-06-11T03:12:07.755Z,62.60
2018-06-11T03:12:39.479Z,62.80
2018-06-11T03:13:11.246Z,62.80
2018-06-11T03:13:43.061Z,62.80
2018-06-11T03:14:15.054Z,62.80
2018-06-11T03:14:46.760Z,62.70
2018-06-11T03:15:50.491Z,63.40
2018-06-11T03:16:22.225Z,62.70
2018-06-11T03:16:53.956Z,62.60
2018-06-11T03:17:25.678Z,62.60
2018-06-11T03:17:57.399Z,62.70
2018-06-11T03:18:29.134Z,62.60
2018-06-11T03:19:00.863Z,62.60
2018-06-11T03:19:32.607Z,62.60
2018-06-11T03:20:04.322Z,62.60
2018-06-11T03:20:36.057Z,62.70
2018-06-11T03:21:07.808Z,62.80
2018-06-11T03:21:39.510Z,62.80
2018-06-11T03:22:11.264Z,63.50
2018-06-11T03:22:43.229Z,62.80
2018-06-11T03:23:14.950Z,62.80
2018-06-11T03:23:46.696Z,63.30
2018-06-11T03:24:18.605Z,62.80
2018-06-11T03:24:50.353Z,62.80
2018-06-11T03:25:22.083Z,62.80
2018-06-11T03:25:53.802Z,62.80
2018-06-11T03:26:25.569Z,62.80
2018-06-11T03:26:57.321Z,62.80
2018-06-11T03:27:29.045Z,62.70
2018-06-11T03:28:00.781Z,62.70
2018-06-11T03:28:32.506Z,62.80
2018-06-11T03:29:04.240Z,62.80
2018-06-11T03:29:36.006Z,62.70
2018-06-11T03:30:07.728Z,62.70
2018-06-11T03:30:39.457Z,62.80
2018-06-11T03:31:11.233Z,62.70
2018-06-11T03:31:42.934Z,62.70
2018-06-11T03:32:14.690Z,62.60
2018-06-11T03:32:46.442Z,62.70
2018-06-11T03:33:18.122Z,62.60
2018-06-11T03:33:49.865Z,62.60
2018-06-11T03:34:21.610Z,62.70
2018-06-11T03:34:53.344Z,62.50
2018-06-11T03:35:25.088Z,62.60
2018-06-11T03:35:56.843Z,62.50
2018-06-11T03:36:28.547Z,62.90
2018-06-11T03:37:00.264Z,62.50
2018-06-11T03:37:31.999Z,62.50
2018-06-11T03:38:03.817Z,62.60
2018-06-11T03:38:35.542Z,62.60
2018-06-11T03:39:07.258Z,63.00
2018-06-11T03:39:38.986Z,62.70
2018-06-11T03:40:10.710Z,62.60
2018-06-11T03:40:42.451Z,62.70
2018-06-11T03:41:14.166Z,62.70
2018-06-11T03:41:45.882Z,62.80
2018-06-11T03:42:17.623Z,62.80
2018-06-11T03:42:49.354Z,62.70
2018-06-11T03:43:21.095Z,62.70
2018-06-11T03:43:52.822Z,62.80
2018-06-11T03:44:24.539Z,62.80
2018-06-11T03:44:56.256Z,62.80
2018-06-11T03:45:28.002Z,63.30
2018-06-11T03:45:59.729Z,62.90
2018-06-11T03:46:31.463Z,62.80
2018-06-11T03:47:03.376Z,62.90
2018-06-11T03:47:35.124Z,62.80
2018-06-11T03:48:06.865Z,62.80
2018-06-11T03:49:10.815Z,62.80
2018-06-11T03:49:42.545Z,62.70
2018-06-11T03:50:14.274Z,62.70
2018-06-11T03:50:45.993Z,62.70
2018-06-11T03:51:17.738Z,62.70
2018-06-11T03:51:49.459Z,62.70
2018-06-11T03:52:21.185Z,62.70
2018-06-11T03:52:52.932Z,62.70
2018-06-11T03:53:24.661Z,62.70
2018-06-11T03:53:56.386Z,62.70
2018-06-11T03:54:28.106Z,62.60
2018-06-11T03:54:59.875Z,62.60
2018-06-11T03:55:31.590Z,62.70
2018-06-11T03:56:03.353Z,62.80
2018-06-11T03:56:35.073Z,62.70
2018-06-11T03:57:38.855Z,62.60
2018-06-11T03:58:10.618Z,62.50
2018-06-11T03:58:42.366Z,62.60
2018-06-11T03:59:46.120Z,62.50
2018-06-11T04:00:17.848Z,62.60
2018-06-11T04:00:49.615Z,63.30
2018-06-11T04:01:21.498Z,62.60
2018-06-11T04:01:53.221Z,62.60
2018-06-11T04:02:24.972Z,62.60
2018-06-11T04:02:56.668Z,62.60
2018-06-11T04:03:28.391Z,62.50
2018-06-11T04:04:00.122Z,62.40
2018-06-11T04:04:32.001Z,62.30
2018-06-11T04:05:35.734Z,62.50
2018-06-11T04:06:07.479Z,62.40
2018-06-11T04:06:39.205Z,62.50
2018-06-11T04:07:10.917Z,62.40
2018-06-11T04:07:42.665Z,62.50
2018-06-11T04:08:14.376Z,62.40
2018-06-11T04:08:46.105Z,62.30
2018-06-11T04:09:17.841Z,62.30
2018-06-11T04:09:49.564Z,63.00
2018-06-11T04:10:21.295Z,62.40
2018-06-11T04:10:53.117Z,62.40
2018-06-11T04:11:24.998Z,62.50
2018-06-11T04:11:56.825Z,62.50
2018-06-11T04:12:28.530Z,62.30
2018-06-11T04:13:00.242Z,62.30
2018-06-11T04:13:31.989Z,62.50
2018-06-11T04:14:03.726Z,63.00
2018-06-11T04:14:35.463Z,62.60
2018-06-11T04:15:07.199Z,62.60
2018-06-11T04:15:38.981Z,64.20
2018-06-11T04:16:10.744Z,65.30
2018-06-11T04:16:42.666Z,65.00
2018-06-11T04:17:14.407Z,65.80
2018-06-11T04:17:46.143Z,66.10
2018-06-11T04:18:17.950Z,65.10
2018-06-11T04:18:49.705Z,65.40
2018-06-11T04:19:21.421Z,65.70
2018-06-11T04:19:53.185Z,65.40
2018-06-11T04:20:24.899Z,64.90
2018-06-11T04:20:56.628Z,64.40
2018-06-11T04:21:28.363Z,64.80
2018-06-11T04:22:00.099Z,65.10
2018-06-11T04:22:31.846Z,64.90
2018-06-11T04:23:03.611Z,64.30
2018-06-11T04:23:35.518Z,64.60
2018-06-11T04:24:07.255Z,65.20
2018-06-11T04:24:38.973Z,65.10
2018-06-11T04:25:10.688Z,65.00
2018-06-11T04:25:42.425Z,65.40
2018-06-11T04:26:14.150Z,64.30
2018-06-11T04:26:46.009Z,64.60
2018-06-11T04:27:17.743Z,64.80
2018-06-11T04:27:49.449Z,65.00
2018-06-11T04:28:21.180Z,64.80
2018-06-11T04:28:52.913Z,64.70
2018-06-11T04:29:24.638Z,64.70
2018-06-11T04:29:56.366Z,64.90
2018-06-11T04:30:28.093Z,65.30
2018-06-11T04:30:59.818Z,64.70
2018-06-11T04:31:31.552Z,65.00
2018-06-11T04:32:03.273Z,64.80
2018-06-11T04:32:35.015Z,64.60
2018-06-11T04:33:06.784Z,65.20
2018-06-11T04:33:38.498Z,64.70
2018-06-11T04:34:10.552Z,64.50
2018-06-11T04:34:42.285Z,64.30
2018-06-11T04:35:14.022Z,64.30
2018-06-11T04:35:45.755Z,64.30
2018-06-11T04:36:17.482Z,64.20
2018-06-11T04:36:49.235Z,64.00
2018-06-11T04:37:20.969Z,64.10
2018-06-11T04:37:52.697Z,64.10
2018-06-11T04:38:24.432Z,63.90
2018-06-11T04:38:56.163Z,63.80
2018-06-11T04:39:27.876Z,63.90
2018-06-11T04:39:59.621Z,64.20
2018-06-11T04:40:31.356Z,63.70
2018-06-11T04:41:03.132Z,63.60
2018-06-11T04:41:34.867Z,63.20
2018-06-11T04:42:06.630Z,63.20
2018-06-11T04:42:38.352Z,63.10
2018-06-11T04:43:10.085Z,63.20
2018-06-11T04:43:41.830Z,63.30
2018-06-11T04:44:13.553Z,63.50
2018-06-11T04:44:45.283Z,63.20
2018-06-11T04:45:17.051Z,63.20
2018-06-11T04:45:48.967Z,63.50
2018-06-11T04:46:20.690Z,63.30
2018-06-11T04:46:52.414Z,63.30
2018-06-11T04:47:24.149Z,63.30
2018-06-11T04:47:55.886Z,63.40
2018-06-11T04:48:27.617Z,63.40
2018-06-11T04:48:59.335Z,63.40
2018-06-11T04:49:31.058Z,63.60
2018-06-11T04:50:02.781Z,63.50
2018-06-11T04:50:34.542Z,63.30
2018-06-11T04:51:06.278Z,63.10
2018-06-11T04:51:38.001Z,63.10
2018-06-11T04:52:09.762Z,63.50
2018-06-11T04:52:41.473Z,62.90
2018-06-11T04:53:13.253Z,63.10
2018-06-11T04:53:44.984Z,63.00
2018-06-11T04:54:16.724Z,63.00
2018-06-11T04:54:48.450Z,63.10
2018-06-11T04:55:20.187Z,63.20
2018-06-11T04:55:51.921Z,63.20
2018-06-11T04:56:23.722Z,63.20
2018-06-11T04:56:55.450Z,63.20
2018-06-11T04:57:27.185Z,64.00
2018-06-11T04:57:58.914Z,63.20
2018-06-11T04:58:30.637Z,63.20
2018-06-11T04:59:02.417Z,63.30
2018-06-11T04:59:34.118Z,63.30
2018-06-11T05:00:05.850Z,63.20
2018-06-11T05:00:37.586Z,63.20
2018-06-11T05:01:09.328Z,63.10
2018-06-11T05:01:41.054Z,63.20
2018-06-11T05:02:12.794Z,63.30
2018-06-11T05:02:44.523Z,63.20
2018-06-11T05:03:16.258Z,63.10
2018-06-11T05:03:48.043Z,63.20
2018-06-11T05:04:19.729Z,63.20
2018-06-11T05:04:51.458Z,63.00
2018-06-11T05:05:23.199Z,63.70
2018-06-11T05:05:54.927Z,63.10
2018-06-11T05:06:26.654Z,63.20
2018-06-11T05:06:58.549Z,63.00
2018-06-11T05:07:30.244Z,63.20
2018-06-11T05:08:01.983Z,63.40
2018-06-11T05:08:33.897Z,63.30
2018-06-11T05:09:05.619Z,63.30
2018-06-11T05:09:37.348Z,62.80
2018-06-11T05:10:09.132Z,63.10
2018-06-11T05:10:41.028Z,63.20
2018-06-11T05:11:12.771Z,63.30
2018-06-11T05:11:44.503Z,63.00
2018-06-11T05:12:16.257Z,63.10
2018-06-11T05:12:47.961Z,63.20
2018-06-11T05:13:19.690Z,63.30
2018-06-11T05:13:51.434Z,62.90
2018-06-11T05:14:23.174Z,63.00
2018-06-11T05:14:54.920Z,63.00
2018-06-11T05:15:26.616Z,63.30
2018-06-11T05:15:58.340Z,63.00
2018-06-11T05:16:30.081Z,62.80
2018-06-11T05:17:01.870Z,63.00
2018-06-11T05:17:33.845Z,63.10
2018-06-11T05:18:05.538Z,62.60
2018-06-11T05:18:37.277Z,62.60
2018-06-11T05:19:08.994Z,62.50
2018-06-11T05:19:40.825Z,62.70
2018-06-11T05:20:12.534Z,63.40
2018-06-11T05:20:44.439Z,62.90
2018-06-11T05:21:16.161Z,63.80
2018-06-11T05:21:47.894Z,62.80
2018-06-11T05:22:19.635Z,63.00
2018-06-11T05:22:51.362Z,63.00
2018-06-11T05:23:23.106Z,62.90
2018-06-11T05:23:54.889Z,62.80
2018-06-11T05:24:26.586Z,62.80
2018-06-11T05:24:58.327Z,62.60
2018-06-11T05:25:30.091Z,62.60
2018-06-11T05:26:01.806Z,62.40
2018-06-11T05:26:33.514Z,62.50
2018-06-11T05:27:05.251Z,62.60
2018-06-11T05:27:36.966Z,62.60
2018-06-11T05:28:08.709Z,62.60
2018-06-11T05:28:40.462Z,62.60
2018-06-11T05:29:12.378Z,62.60
2018-06-11T05:29:44.105Z,62.60
2018-06-11T05:30:15.853Z,62.70
2018-06-11T05:30:47.581Z,62.70
2018-06-11T05:31:19.341Z,62.90
2018-06-11T05:31:51.066Z,62.70
2018-06-11T05:32:22.850Z,62.70
2018-06-11T05:32:54.742Z,62.80
2018-06-11T05:33:26.435Z,63.40
2018-06-11T05:33:58.175Z,62.70
2018-06-11T05:34:29.916Z,62.70
2018-06-11T05:35:01.652Z,62.80
2018-06-11T05:35:33.623Z,62.70
2018-06-11T05:36:05.370Z,62.60
2018-06-11T05:36:37.105Z,62.60
2018-06-11T05:37:08.852Z,62.50
2018-06-11T05:37:40.750Z,62.50
2018-06-11T05:38:12.473Z,62.40
2018-06-11T05:38:44.198Z,62.30
2018-06-11T05:39:15.914Z,62.40
2018-06-11T05:39:47.630Z,62.50
2018-06-11T05:40:19.371Z,62.40
2018-06-11T05:40:51.295Z,62.40
2018-06-11T05:41:55.033Z,62.30
2018-06-11T05:42:26.757Z,62.20
2018-06-11T05:42:58.476Z,62.20
2018-06-11T05:43:30.234Z,62.20
2018-06-11T05:44:01.934Z,62.20
2018-06-11T05:44:33.668Z,62.00
2018-06-11T05:45:05.401Z,62.20
2018-06-11T05:45:37.139Z,62.30
2018-06-11T05:46:08.872Z,62.30
2018-06-11T05:46:40.651Z,62.30
2018-06-11T05:47:12.374Z,62.40
2018-06-11T05:47:44.094Z,62.30
2018-06-11T05:48:15.801Z,62.30
2018-06-11T05:48:47.536Z,62.30
2018-06-11T05:49:19.271Z,62.20
2018-06-11T05:49:51.002Z,62.20
2018-06-11T05:50:22.730Z,62.20
2018-06-11T05:50:54.481Z,62.30
2018-06-11T05:51:26.222Z,63.00
2018-06-11T05:51:57.945Z,62.20
2018-06-11T05:52:29.671Z,62.20
2018-06-11T05:53:01.416Z,62.30
2018-06-11T05:54:05.169Z,62.30
2018-06-11T05:54:36.900Z,62.20
2018-06-11T05:55:08.687Z,62.30
2018-06-11T05:55:40.421Z,62.30
2018-06-11T05:56:12.343Z,62.20
2018-06-11T05:56:44.111Z,62.20
2018-06-11T05:57:15.839Z,62.20
2018-06-11T05:57:47.561Z,62.00
2018-06-11T05:58:19.284Z,61.90
2018-06-11T05:58:51.009Z,61.90
2018-06-11T05:59:22.733Z,61.90
2018-06-11T05:59:54.478Z,61.90
2018-06-11T06:00:26.185Z,61.90
2018-06-11T06:00:57.938Z,61.80
2018-06-11T06:01:29.674Z,61.90
2018-06-11T06:02:01.424Z,62.00
2018-06-11T06:02:33.147Z,62.10
2018-06-11T06:03:04.886Z,62.10
2018-06-11T06:03:36.705Z,62.10
2018-06-11T06:04:08.429Z,62.10
2018-06-11T06:04:40.227Z,62.10
2018-06-11T06:05:11.934Z,62.20
2018-06-11T06:05:43.671Z,62.10
2018-06-11T06:06:15.417Z,62.00
2018-06-11T06:06:47.230Z,62.10
2018-06-11T06:07:18.990Z,62.10
2018-06-11T06:07:50.693Z,62.00
2018-06-11T06:08:22.418Z,62.00
2018-06-11T06:08:54.188Z,62.00
2018-06-11T06:09:25.889Z,61.90
2018-06-11T06:09:57.614Z,61.80
2018-06-11T06:10:29.359Z,61.80
2018-06-11T06:11:01.073Z,61.60
2018-06-11T06:11:32.803Z,61.60
2018-06-11T06:12:04.567Z,61.70
2018-06-11T06:12:36.312Z,61.70
2018-06-11T06:13:08.042Z,61.60
2018-06-11T06:13:39.785Z,61.70
2018-06-11T06:14:11.554Z,61.80
2018-06-11T06:14:43.441Z,61.60
2018-06-11T06:15:15.169Z,61.30
2018-06-11T06:15:46.922Z,61.40
2018-06-11T06:16:18.807Z,61.40
2018-06-11T06:17:22.547Z,61.40
2018-06-11T06:17:54.278Z,61.40
2018-06-11T06:18:26.002Z,61.20
2018-06-11T06:18:57.723Z,61.30
2018-06-11T06:19:29.455Z,61.30
2018-06-11T06:20:01.200Z,61.30
2018-06-11T06:20:32.931Z,61.40
2018-06-11T06:21:04.666Z,61.40
2018-06-11T06:21:36.396Z,61.30
2018-06-11T06:22:08.121Z,62.20
2018-06-11T06:22:39.855Z,61.40
2018-06-11T06:23:11.583Z,61.50
2018-06-11T06:23:43.303Z,61.40
2018-06-11T06:24:15.091Z,61.40
2018-06-11T06:24:46.794Z,61.40
2018-06-11T06:25:18.521Z,61.40
2018-06-11T06:25:50.272Z,61.50
2018-06-11T06:26:22.022Z,61.40
2018-06-11T06:26:53.746Z,61.50
2018-06-11T06:27:25.490Z,61.50
2018-06-11T06:27:57.213Z,61.40
2018-06-11T06:28:28.938Z,61.60
2018-06-11T06:29:00.673Z,61.50
2018-06-11T06:29:32.406Z,61.50
2018-06-11T06:30:04.123Z,61.40
2018-06-11T06:30:35.865Z,61.40
2018-06-11T06:31:07.592Z,61.40
2018-06-11T06:31:39.316Z,61.30
2018-06-11T06:32:11.057Z,61.30
2018-06-11T06:32:42.790Z,61.40
2018-06-11T06:33:14.511Z,61.50
2018-06-11T06:33:46.250Z,61.40
2018-06-11T06:34:18.034Z,61.40
2018-06-11T06:34:50.004Z,61.60
2018-06-11T06:35:21.852Z,61.40
2018-06-11T06:35:53.561Z,61.40
2018-06-11T06:36:25.294Z,61.40
2018-06-11T06:36:57.025Z,61.60
2018-06-11T06:37:28.750Z,61.60
2018-06-11T06:38:00.474Z,61.50
2018-06-11T06:38:32.496Z,61.40
2018-06-11T06:39:04.295Z,61.40
2018-06-11T06:39:36.018Z,61.20
2018-06-11T06:40:07.940Z,61.00
2018-06-11T06:40:39.867Z,61.10
2018-06-11T06:41:11.585Z,61.20
2018-06-11T06:41:43.332Z,61.10
2018-06-11T06:42:15.100Z,61.30
2018-06-11T06:42:46.926Z,61.20
2018-06-11T06:43:18.641Z,61.20
2018-06-11T06:43:50.394Z,61.20
2018-06-11T06:44:22.119Z,60.80
2018-06-11T06:44:53.846Z,60.70
2018-06-11T06:45:25.613Z,60.70
2018-06-11T06:45:57.331Z,60.50
2018-06-11T06:46:29.058Z,60.40
2018-06-11T06:47:00.887Z,60.60
2018-06-11T06:47:32.626Z,60.50
2018-06-11T06:48:04.330Z,60.80
2018-06-11T06:48:36.073Z,60.80
2018-06-11T06:49:07.822Z,60.80
2018-06-11T06:49:39.533Z,60.80
2018-06-11T06:50:11.333Z,60.80
2018-06-11T06:50:43.085Z,60.90
2018-06-11T06:51:14.772Z,60.90
2018-06-11T06:51:46.516Z,60.80
2018-06-11T06:52:18.265Z,60.90
2018-06-11T06:52:49.991Z,60.90
2018-06-11T06:53:21.715Z,60.90
2018-06-11T06:53:53.453Z,61.00
2018-06-11T06:54:25.178Z,61.00
2018-06-11T06:54:56.910Z,61.00
2018-06-11T06:55:28.711Z,61.10
2018-06-11T06:56:00.388Z,61.20